Time;durP1;ratioP1;P1;durP2;ratioP2;P2;SDS_P1;SDS_P2;PMS_P1;PMS_P2;Temp;Humidity;BMP_temperature;BMP_pressure;BME280_temperature;BME280_humidity;BME280_pressure;Samples;Min_cycle;Max_cycle;Signal;HPM_P1;HPM_P2
2022/02/03 00:02:06;;;;;;;21.27;12.50;;;;;;;13.62;45.94;101135.84;4926958;29;20059;-81
2022/02/03 00:04:42;;;;;;;22.83;12.38;;;;;;;13.63;46.03;101132.75;4933320;29;20138;-81
2022/02/03 00:07:15;;;;;;;17.90;11.50;;;;;;;13.55;46.39;101135.34;4933172;29;20156;-82
2022/02/03 00:26:08;;;;;;;18.40;11.77;;;;;;;13.43;46.80;101130.03;4933724;29;20047;-78
2022/02/03 00:28:44;;;;;;;23.37;12.77;;;;;;;13.41;46.82;101135.09;4930182;29;20147;-78
2022/02/03 00:31:32;;;;;;;19.43;10.60;;;;;;;13.37;46.96;101122.78;4923628;29;20535;-79
2022/02/03 00:34:12;;;;;;;14.27;9.33;;;;;;;13.30;47.19;101119.41;4952074;28;20131;-77
2022/02/03 00:50:36;;;;;;;14.97;9.67;;;;;;;13.15;47.38;101103.44;4922753;29;20559;-79
2022/02/03 00:53:06;;;;;;;17.05;9.30;;;;;;;12.83;47.43;101048.56;4927820;29;20436;-76
2022/02/03 00:55:37;;;;;;;18.53;9.93;;;;;;;13.14;47.70;101093.34;4929855;29;20134;-76
2022/02/03 00:58:06;;;;;;;17.03;9.80;;;;;;;12.77;48.06;101060.91;4928658;29;20058;-75
2022/02/03 01:00:34;;;;;;;24.67;10.75;;;;;;;12.96;48.17;101092.84;4927631;29;20579;-77
2022/02/03 01:03:25;;;;;;;14.90;8.40;;;;;;;12.96;48.15;101095.63;4933800;29;20052;-75
2022/02/03 01:05:58;;;;;;;16.57;9.90;;;;;;;12.85;48.45;101074.34;4933478;29;20043;-75
2022/02/03 01:08:28;;;;;;;12.90;9.20;;;;;;;12.76;48.74;101068.47;4931272;29;20056;-75
2022/02/03 01:11:12;;;;;;;11.93;8.90;;;;;;;12.70;48.86;101065.97;4933139;29;20067;-76
2022/02/03 01:35:11;;;;;;;14.10;9.57;;;;;;;12.67;48.71;101069.31;4931632;29;20083;-81
2022/02/03 01:43:25;;;;;;;17.67;9.30;;;;;;;13.09;47.89;101082.13;4934689;29;20481;-73
2022/02/03 01:45:59;;;;;;;19.30;10.30;;;;;;;13.04;48.01;101075.41;4929908;29;20130;-75
2022/02/03 01:48:52;;;;;;;24.77;10.60;;;;;;;13.07;47.95;101079.63;4931328;29;20057;-77
2022/02/03 01:54:05;;;;;;;19.13;9.27;;;;;;;13.02;47.79;101063.66;4927742;29;20054;-75
2022/02/03 01:56:36;;;;;;;17.03;8.30;;;;;;;12.97;48.15;101074.03;4929494;29;20052;-75
2022/02/03 01:59:12;;;;;;;17.10;9.80;;;;;;;12.83;48.60;101072.97;4931795;29;20054;-81
2022/02/03 02:01:39;;;;;;;17.50;9.47;;;;;;;12.70;49.06;101072.41;4927311;29;20127;-79
2022/02/03 02:04:49;;;;;;;9.97;7.53;;;;;;;12.48;49.73;101072.72;4936076;29;20051;-78
2022/02/03 02:07:24;;;;;;;16.45;8.52;;;;;;;12.36;50.00;101066.53;4930524;29;22003;-76
2022/02/03 02:13:10;;;;;;;15.70;6.93;;;;;;;12.14;51.04;101060.38;4929446;29;20167;-75
2022/02/03 02:44:01;;;;;;;9.98;6.32;;;;;;;11.57;54.59;101046.25;4932714;29;20075;-74
2022/02/03 02:46:37;;;;;;;4.10;3.50;;;;;;;11.27;54.76;101015.38;4924156;29;20043;-75
2022/02/03 02:49:50;;;;;;;15.77;10.50;;;;;;;11.00;54.38;100954.91;4930881;29;20055;-78
2022/02/03 02:52:26;;;;;;;14.93;8.57;;;;;;;11.58;54.18;101044.28;4928044;28;20052;-81
2022/02/03 03:01:28;;;;;;;10.43;6.83;;;;;;;11.40;54.45;101045.63;4924783;29;20143;-78
2022/02/03 03:04:22;;;;;;;8.23;5.93;;;;;;;11.31;54.27;101038.88;4927064;29;20055;-78
2022/02/03 03:31:43;;;;;;;10.67;4.73;;;;;;;11.75;53.15;101030.06;4929441;29;20094;-73
2022/02/03 03:36:42;;;;;;;13.50;7.63;;;;;;;11.83;52.99;101030.38;4928018;29;20142;-73
2022/02/03 03:39:12;;;;;;;15.47;8.07;;;;;;;11.74;53.35;101020.00;4928334;29;20472;-74
2022/02/03 03:41:42;;;;;;;;;;;;;;;11.58;53.77;101036.72;4936368;29;20083;-75
2022/02/03 03:44:14;;;;;;;14.33;7.97;;;;;;;11.72;53.16;101041.81;4933830;29;19981;-74
2022/02/03 03:46:47;;;;;;;14.97;7.43;;;;;;;11.64;53.35;101012.41;4931968;29;20569;-74
2022/02/03 03:49:44;;;;;;;16.43;7.87;;;;;;;11.60;53.59;101019.69;4928861;29;20071;-73
2022/02/03 03:52:20;;;;;;;13.87;9.17;;;;;;;11.35;53.83;100993.34;4946132;29;20043;-72
2022/02/03 03:55:02;;;;;;;17.30;7.73;;;;;;;11.49;53.99;101018.81;4945301;29;20039;-73
2022/02/03 05:02:57;;;;;;;7.60;5.75;;;;;;;10.65;56.59;100997.47;4932849;29;20056;-82
2022/02/03 05:08:30;;;;;;;8.00;5.50;;;;;;;10.52;57.25;101001.59;4932788;29;20083;-84
2022/02/03 05:20:21;;;;;;;4.53;2.93;;;;;;;10.52;56.97;100984.00;4938008;29;20014;-77
2022/02/03 05:32:42;;;;;;;12.38;7.53;;;;;;;10.74;56.42;100975.47;4932531;29;20510;-78
2022/02/03 05:47:47;;;;;;;16.90;9.77;;;;;;;10.66;56.33;100991.63;4931591;29;20058;-74
2022/02/03 06:09:05;;;;;;;14.23;8.80;;;;;;;11.07;55.02;100990.97;4935401;29;20489;-74
2022/02/03 06:14:52;;;;;;;17.70;9.53;;;;;;;11.14;54.61;100980.38;4967599;29;20059;-76
2022/02/03 06:27:53;;;;;;;17.60;9.07;;;;;;;10.68;54.95;100958.69;4951751;29;20032;-81
2022/02/03 06:30:21;;;;;;;20.80;9.90;;;;;;;10.91;55.41;101004.06;4944120;29;20051;-77
2022/02/03 06:32:48;;;;;;;12.53;6.70;;;;;;;10.79;55.27;100995.88;4954128;29;20051;-78
2022/02/03 06:35:19;;;;;;;14.70;7.33;;;;;;;10.63;55.92;100982.94;4944347;29;20063;-77
2022/02/03 06:37:48;;;;;;;15.53;7.50;;;;;;;10.65;56.13;100989.09;4937222;29;20102;-72
2022/02/03 06:40:18;;;;;;;13.50;6.73;;;;;;;10.58;56.53;100980.13;4938098;29;20114;-75
2022/02/03 06:42:46;;;;;;;12.15;7.25;;;;;;;10.49;56.94;100999.31;4939532;29;20079;-72
2022/02/03 06:45:28;;;;;;;11.57;6.00;;;;;;;10.43;57.09;100995.69;4935140;29;20491;-73
2022/02/03 06:48:03;;;;;;;14.20;7.90;;;;;;;10.29;57.05;100971.28;4953041;28;20503;-73
2022/02/03 06:50:40;;;;;;;15.63;9.77;;;;;;;10.24;57.20;100971.22;4943104;29;20062;-73
2022/02/03 06:53:14;;;;;;;11.40;6.30;;;;;;;10.29;57.27;100985.22;4933196;29;20135;-74
2022/02/03 06:55:48;;;;;;;10.97;6.23;;;;;;;10.24;57.49;100987.97;4927543;29;20051;-73
2022/02/03 07:00:53;;;;;;;6.87;4.40;;;;;;;10.27;57.63;101007.84;4922893;29;20190;-70
2022/02/03 07:03:23;;;;;;;15.50;7.53;;;;;;;10.28;57.86;101022.63;4929050;29;20047;-69
2022/02/03 07:05:50;;;;;;;12.73;7.90;;;;;;;10.18;57.78;100989.88;4932631;29;20132;-71
2022/02/03 07:08:19;;;;;;;15.60;8.67;;;;;;;10.34;57.68;101019.63;4923654;29;20199;-69
2022/02/03 07:10:47;;;;;;;15.53;9.03;;;;;;;10.37;57.64;101021.88;4929824;29;20146;-69
2022/02/03 07:13:15;;;;;;;8.17;5.90;;;;;;;10.26;58.20;101014.53;4925784;29;20083;-68
2022/02/03 07:15:43;;;;;;;15.33;8.53;;;;;;;10.38;58.37;101028.28;4926209;29;21822;-69
2022/02/03 07:18:10;;;;;;;15.40;9.50;;;;;;;10.32;58.12;101007.03;4926988;29;20139;-71
2022/02/03 07:20:36;;;;;;;14.43;7.53;;;;;;;10.42;57.86;101029.44;4921757;29;20056;-69
2022/02/03 07:23:06;;;;;;;15.00;8.53;;;;;;;10.33;57.93;101017.09;4922412;29;20054;-69
2022/02/03 07:25:33;;;;;;;16.38;9.73;;;;;;;10.21;57.99;101029.25;4930010;29;20075;-70
2022/02/03 07:28:02;;;;;;;20.03;9.83;;;;;;;10.25;58.14;101028.72;4926434;29;20066;-69
2022/02/03 07:30:29;;;;;;;17.20;8.40;;;;;;;10.15;58.31;101019.16;4926772;29;20087;-69
2022/02/03 07:32:59;;;;;;;13.20;7.43;;;;;;;10.12;58.52;101027.22;4922621;29;20058;-70
2022/02/03 07:35:28;;;;;;;9.67;7.10;;;;;;;9.84;58.63;101009.66;4922906;29;20080;-70
2022/02/03 07:37:55;;;;;;;12.13;9.27;;;;;;;10.00;58.78;101048.88;4925600;29;20050;-70
2022/02/03 07:40:22;;;;;;;12.63;8.00;;;;;;;9.89;58.91;101039.56;4925360;29;20374;-70
2022/02/03 07:42:51;;;;;;;18.10;10.37;;;;;;;10.04;58.67;101062.03;4925438;29;20126;-70
2022/02/03 07:45:19;;;;;;;14.23;7.87;;;;;;;10.01;58.80;101062.56;4922939;29;20138;-70
2022/02/03 07:47:49;;;;;;;15.40;9.87;;;;;;;10.06;58.61;101065.41;4923835;29;20511;-70
2022/02/03 07:50:18;;;;;;;19.35;9.13;;;;;;;10.11;58.43;101067.41;4924230;29;20134;-69
2022/02/03 07:52:45;;;;;;;10.53;6.70;;;;;;;10.20;58.26;101065.81;4928578;29;20110;-70
2022/02/03 07:55:14;;;;;;;12.73;6.83;;;;;;;9.93;58.41;101024.81;4929239;29;20143;-70
2022/02/03 07:57:51;;;;;;;13.40;6.27;;;;;;;10.22;58.26;101080.31;4927774;29;20134;-70
2022/02/03 08:00:20;;;;;;;7.20;6.30;;;;;;;10.29;58.14;101092.16;4929254;29;20090;-71
2022/02/03 08:03:11;;;;;;;11.87;5.70;;;;;;;10.16;58.24;101070.25;4930886;29;20955;-71
2022/02/03 08:05:41;;;;;;;8.47;5.50;;;;;;;10.23;58.50;101087.59;4930154;29;20155;-71
2022/02/03 08:10:46;;;;;;;9.23;5.87;;;;;;;10.05;59.38;101102.78;4932657;29;20142;-71
2022/02/03 08:13:21;;;;;;;10.70;4.77;;;;;;;9.73;59.77;101058.94;4929141;29;20130;-69
2022/02/03 08:15:55;;;;;;;5.07;3.07;;;;;;;9.80;60.37;101105.31;4921146;29;20575;-70
2022/02/03 08:18:22;;;;;;;7.93;6.80;;;;;;;9.25;60.77;101035.53;4948222;28;20494;-72
2022/02/03 08:20:54;;;;;;;11.87;7.07;;;;;;;9.82;60.26;101109.53;4920950;29;20154;-69
2022/02/03 08:26:01;;;;;;;6.87;3.90;;;;;;;9.86;60.21;101110.69;4934984;29;20131;-70
2022/02/03 08:31:21;;;;;;;14.93;6.70;;;;;;;9.72;60.93;101123.34;4933989;29;20147;-69
2022/02/03 08:33:51;;;;;;;9.70;4.73;;;;;;;9.80;61.07;101111.72;4934220;29;20093;-70
2022/02/03 08:36:19;;;;;;;10.15;5.72;;;;;;;9.94;60.74;101095.41;4934916;29;20122;-71
2022/02/03 08:38:49;;;;;;;4.87;3.30;;;;;;;10.04;60.16;101084.34;4929699;29;20131;-70
2022/02/03 08:41:17;;;;;;;8.00;4.87;;;;;;;10.16;59.58;101087.81;4921799;29;20472;-69
2022/02/03 08:43:45;;;;;;;13.17;7.70;;;;;;;10.20;59.25;101075.03;4922790;29;20056;-70
2022/02/03 08:46:13;;;;;;;15.60;8.07;;;;;;;10.31;59.30;101123.44;4926742;29;20048;-67
2022/02/03 08:48:40;;;;;;;7.63;4.40;;;;;;;10.20;59.63;101119.69;4934021;29;20501;-68
2022/02/03 08:51:12;;;;;;;6.33;4.70;;;;;;;10.04;59.79;101089.09;4932141;29;20060;-77
2022/02/03 08:54:03;;;;;;;12.60;7.50;;;;;;;10.19;59.81;101112.41;4932558;29;20555;-74
2022/02/03 09:31:50;;;;;;;17.13;9.23;;;;;;;12.60;54.00;101124.81;4930550;29;20557;-67
2022/02/03 09:37:51;;;;;;;19.60;11.40;;;;;;;13.11;52.59;101147.19;4937047;29;20051;-66
2022/02/03 09:51:46;;;;;;;13.97;8.77;;;;;;;14.19;50.59;101140.06;4933223;29;20060;-67
2022/02/03 09:57:09;;;;;;;20.27;10.60;;;;;;;14.41;49.75;101140.47;4926287;29;20154;-67
2022/02/03 10:02:12;;;;;;;14.57;8.77;;;;;;;14.26;49.27;101117.28;4932301;29;20059;-67
2022/02/03 10:04:50;;;;;;;17.73;9.77;;;;;;;14.61;49.09;101141.47;4933456;29;20093;-67
2022/02/03 10:07:25;;;;;;;16.60;9.77;;;;;;;14.77;48.72;101151.47;4933358;29;20171;-67
2022/02/03 10:09:54;;;;;;;13.73;9.17;;;;;;;15.19;48.43;101152.75;4931895;29;20055;-68
2022/02/03 10:12:42;;;;;;;16.85;8.05;;;;;;;15.53;48.07;101141.41;4927954;29;20062;-68
2022/02/03 10:15:12;;;;;;;14.70;8.63;;;;;;;15.39;47.50;101148.88;4926739;29;20118;-68
2022/02/03 10:17:49;;;;;;;19.80;10.63;;;;;;;15.34;47.34;101151.75;4934652;29;20055;-69
2022/02/03 10:20:20;;;;;;;21.70;11.20;;;;;;;15.41;47.25;101149.41;4933675;29;20055;-68
2022/02/03 10:22:52;;;;;;;16.53;10.60;;;;;;;15.36;47.18;101153.13;4935349;29;20134;-68
2022/02/03 10:25:31;;;;;;;20.33;10.33;;;;;;;15.31;47.25;101161.63;4935124;29;20499;-68
2022/02/03 10:28:03;;;;;;;15.10;10.03;;;;;;;15.49;47.03;101167.66;4932398;29;20126;-68
2022/02/03 10:30:40;;;;;;;16.13;10.80;;;;;;;15.78;46.86;101165.63;4932030;29;20087;-68
2022/02/03 10:33:07;;;;;;;18.27;10.67;;;;;;;16.24;46.60;101135.97;4932219;29;20411;-69
2022/02/03 10:35:43;;;;;;;15.07;9.90;;;;;;;17.01;46.15;101169.44;4932776;29;20054;-68
2022/02/03 10:52:30;;;;;;;15.93;10.05;;;;;;;19.73;42.11;101181.97;4932609;29;20118;-67
2022/02/03 11:07:55;;;;;;;14.68;7.90;;;;;;;19.90;41.23;101159.34;4934177;29;20059;-68
2022/02/03 11:12:53;;;;;;;14.30;9.23;;;;;;;20.48;40.20;101157.28;4934568;29;20494;-68
2022/02/03 11:15:25;;;;;;;14.00;7.93;;;;;;;20.20;40.13;101139.72;4936343;29;20054;-68
2022/02/03 11:17:55;;;;;;;12.05;7.32;;;;;;;20.03;39.96;101155.56;4936190;29;20075;-68
2022/02/03 11:20:24;;;;;;;14.13;8.70;;;;;;;19.98;39.92;101133.00;4934609;29;20062;-68
2022/02/03 11:25:54;;;;;;;14.90;7.13;;;;;;;20.06;39.79;101148.38;4966712;28;20087;-67
2022/02/03 11:40:22;;;;;;;16.55;7.55;;;;;;;21.64;38.88;101151.59;4928224;29;20059;-69
2022/02/03 11:42:51;;;;;;;18.70;6.93;;;;;;;22.04;38.59;101133.31;4934168;29;20075;-70
2022/02/03 12:00:34;;;;;;;8.95;5.60;;;;;;;22.91;38.20;101124.94;4924560;29;20550;-68
2022/02/03 12:21:51;;;;;;;11.57;6.50;;;;;;;24.83;36.20;101110.53;4957693;29;20297;-68
2022/02/03 12:27:16;;;;;;;8.40;5.28;;;;;;;25.38;35.83;101110.03;4946912;29;20059;-68
2022/02/03 12:29:49;;;;;;;10.57;4.50;;;;;;;25.24;35.75;101105.56;4936457;29;20499;-69
2022/02/03 12:40:43;;;;;;;10.27;5.60;;;;;;;24.03;36.86;101074.22;4933105;29;20083;-69
2022/02/03 12:43:27;;;;;;;10.88;5.68;;;;;;;24.39;36.73;101080.22;4933365;29;20578;-68
2022/02/03 12:45:55;;;;;;;8.60;5.68;;;;;;;24.56;36.45;101094.22;4926806;29;20063;-68
2022/02/03 12:48:27;;;;;;;9.20;5.47;;;;;;;24.52;36.49;101074.13;4933371;29;20131;-68
2022/02/03 12:50:55;;;;;;;9.23;5.30;;;;;;;24.30;36.64;101066.91;4930591;29;20102;-66
2022/02/03 12:53:28;;;;;;;9.77;5.80;;;;;;;24.27;37.13;101079.09;4932721;29;20079;-65
2022/02/03 12:55:55;;;;;;;6.45;3.95;;;;;;;24.44;36.86;101088.56;4929283;29;20047;-65
2022/02/03 12:58:25;;;;;;;5.78;4.53;;;;;;;24.62;36.79;101083.41;4930058;29;20219;-64
2022/02/03 13:01:06;;;;;;;8.07;4.38;;;;;;;24.61;37.16;101071.13;4931782;29;20090;-66
2022/02/03 13:03:38;;;;;;;7.18;3.97;;;;;;;24.53;37.51;101067.22;4931975;29;20055;-64
2022/02/03 13:06:10;;;;;;;6.15;3.45;;;;;;;24.53;37.20;101058.66;4936194;29;20048;-65
2022/02/03 13:08:44;;;;;;;8.73;3.97;;;;;;;23.82;38.18;101062.16;4933309;29;20083;-66
2022/02/03 13:11:31;;;;;;;6.68;3.35;;;;;;;22.67;39.38;101011.78;4937109;29;20503;-76
2022/02/03 13:16:51;;;;;;;3.83;3.03;;;;;;;22.70;39.62;101037.53;4937772;29;20083;-70
2022/02/03 13:19:30;;;;;;;5.32;3.38;;;;;;;23.03;39.42;101053.78;4937645;29;20047;-71
2022/02/03 13:25:18;;;;;;;5.20;2.70;;;;;;;23.40;38.81;101048.97;4936982;29;20221;-70
2022/02/03 13:27:25;;;;;;;8.27;3.20;;;;;;;23.58;38.79;101052.38;4937051;29;20075;-69
2022/02/03 13:32:25;;;;;;;6.97;2.47;;;;;;;23.28;38.10;100979.72;4935030;29;20079;-66
2022/02/03 13:35:02;;;;;;;6.95;2.83;;;;;;;23.64;38.23;101048.13;4935750;29;20134;-73
2022/02/03 13:37:37;;;;;;;7.90;1.95;;;;;;;23.01;38.25;101012.59;4933513;29;20089;-76
2022/02/03 13:40:14;;;;;;;5.25;2.22;;;;;;;22.55;39.24;101043.88;4929481;29;20083;-77
2022/02/03 13:42:48;;;;;;;8.27;2.85;;;;;;;22.11;39.89;101045.44;4924717;29;20579;-79
2022/02/03 13:45:18;;;;;;;4.43;2.63;;;;;;;21.82;40.28;101032.09;4934921;29;20086;-71
2022/02/03 13:47:46;;;;;;;;;;;;;;;21.28;40.94;101044.09;4932063;29;20051;-74
2022/02/03 13:50:28;;;;;;;5.38;2.80;;;;;;;21.24;41.31;101034.59;4935826;29;20267;-75
2022/02/03 13:53:04;;;;;;;6.43;2.30;;;;;;;21.08;41.29;101030.63;4932672;29;20139;-75
2022/02/03 14:29:15;;;;;;;10.85;2.55;;;;;;;19.36;44.51;101022.66;4929362;29;20135;-80
2022/02/03 14:31:43;;;;;;;9.38;4.13;;;;;;;19.04;45.00;100987.91;4925436;29;20158;-79
2022/02/03 14:34:15;;;;;;;15.57;3.80;;;;;;;18.94;45.43;100989.03;4935664;29;20135;-80
2022/02/03 14:36:47;;;;;;;8.73;4.18;;;;;;;19.12;45.78;101021.06;4966201;28;20154;-81
2022/02/03 14:39:18;;;;;;;14.98;5.07;;;;;;;19.02;46.11;101024.19;4935851;29;20150;-79
2022/02/03 14:41:47;;;;;;;8.52;4.55;;;;;;;18.85;46.43;101018.44;4936432;29;20090;-77
2022/02/03 14:44:17;;;;;;;11.80;4.18;;;;;;;18.72;46.77;100991.09;4933033;29;20079;-76
2022/02/03 14:46:45;;;;;;;8.70;4.03;;;;;;;18.88;46.53;101010.13;4935184;29;20404;-75
2022/02/03 14:49:12;;;;;;;8.05;4.47;;;;;;;18.72;46.60;100985.44;4935049;29;20135;-78
2022/02/03 14:51:55;;;;;;;6.50;3.75;;;;;;;18.91;46.72;101011.50;4935023;29;20146;-77
2022/02/03 14:59:37;;;;;;;5.57;3.42;;;;;;;18.59;47.00;101010.59;4935412;29;20098;-79
2022/02/03 15:02:08;;;;;;;7.97;4.28;;;;;;;18.50;47.61;101014.56;4930998;29;20047;-70
2022/02/03 15:04:39;;;;;;;7.28;3.40;;;;;;;18.43;47.54;101007.38;4922877;29;20139;-65
2022/02/03 15:07:08;;;;;;;7.63;4.05;;;;;;;18.42;47.83;101013.31;4924492;29;20052;-66
2022/02/03 15:14:59;;;;;;;6.50;3.45;;;;;;;18.31;47.88;101003.44;4931162;29;20051;-65
2022/02/03 15:17:29;;;;;;;9.98;4.50;;;;;;;18.36;48.04;101004.16;4933855;29;20143;-65
2022/02/03 15:19:57;;;;;;;8.90;3.85;;;;;;;18.38;47.80;101007.47;4964733;28;20491;-65
2022/02/03 15:22:24;;;;;;;7.35;3.65;;;;;;;18.40;47.84;101013.66;4932467;29;20079;-66
2022/02/03 15:24:50;;;;;;;8.60;3.53;;;;;;;18.27;48.09;100989.13;4935328;29;20054;-64
2022/02/03 15:27:17;;;;;;;8.18;3.67;;;;;;;18.39;48.00;101012.00;4935151;29;20419;-65
2022/02/03 15:29:47;;;;;;;8.88;3.75;;;;;;;18.44;47.98;101017.50;4935059;29;20086;-65
2022/02/03 15:32:15;;;;;;;7.63;3.40;;;;;;;18.41;47.74;101011.66;4933266;29;20047;-65
2022/02/03 15:34:42;;;;;;;9.27;3.17;;;;;;;18.37;47.98;101008.66;4934449;29;20090;-65
2022/02/03 15:37:15;;;;;;;8.68;3.67;;;;;;;18.34;48.06;101008.47;4932136;29;20127;-65
2022/02/03 15:39:48;;;;;;;9.85;3.45;;;;;;;18.27;47.93;100994.78;4930112;29;20102;-66
2022/02/03 15:42:28;;;;;;;13.80;4.35;;;;;;;18.31;48.09;101014.75;4934928;29;20091;-64
2022/02/03 15:44:56;;;;;;;11.15;3.92;;;;;;;17.78;48.01;100928.75;4933296;29;20130;-66
2022/02/03 15:47:49;;;;;;;7.68;3.22;;;;;;;18.34;48.07;101025.41;4933485;29;20143;-65
2022/02/03 16:17:42;;;;;;;7.13;3.30;;;;;;;17.94;49.45;101028.09;4933773;29;20511;-65
2022/02/03 16:20:20;;;;;;;6.03;3.03;;;;;;;17.94;48.85;101028.91;4929468;29;20079;-65
2022/02/03 16:23:25;;;;;;;7.30;2.85;;;;;;;17.99;49.14;101036.44;4933045;29;20056;-65
2022/02/03 16:53:26;;;;;;;10.43;4.40;;;;;;;17.04;50.71;101041.88;4937404;29;20083;-67
2022/02/03 16:55:53;;;;;;;10.70;3.60;;;;;;;16.96;51.23;101042.59;4936181;29;20146;-70
2022/02/03 16:58:20;;;;;;;10.23;3.80;;;;;;;16.70;50.94;101012.00;4938384;29;20075;-69
2022/02/03 17:00:48;;;;;;;12.55;4.32;;;;;;;16.84;51.50;101047.91;4938512;29;20134;-69
2022/02/03 17:03:16;;;;;;;11.90;4.03;;;;;;;16.69;51.61;101027.25;4930267;29;20130;-68
2022/02/03 17:05:43;;;;;;;11.60;4.63;;;;;;;16.57;51.97;101001.53;4937710;29;20495;-69
2022/02/03 17:08:10;;;;;;;12.30;4.40;;;;;;;16.69;52.09;101044.19;4937609;29;20086;-69
2022/02/03 17:10:37;;;;;;;6.13;3.77;;;;;;;16.73;51.78;101048.06;4935876;29;20134;-70
2022/02/03 17:13:06;;;;;;;8.33;3.87;;;;;;;16.68;52.00;101036.00;4925556;29;20063;-71
2022/02/03 17:15:35;;;;;;;10.80;4.10;;;;;;;16.50;51.66;101006.75;4927412;29;20333;-71
2022/02/03 17:18:02;;;;;;;12.73;5.37;;;;;;;16.72;51.83;101040.75;4932403;29;20134;-70
2022/02/03 17:20:31;;;;;;;10.77;4.73;;;;;;;16.54;52.09;101017.06;4933112;29;20052;-70
2022/02/03 17:22:59;;;;;;;8.37;4.23;;;;;;;16.65;52.12;101045.94;4936638;29;20090;-71
2022/02/03 17:25:41;;;;;;;19.47;5.17;;;;;;;16.42;52.53;101010.28;4930407;29;20082;-71
2022/02/03 17:28:53;;;;;;;9.50;4.33;;;;;;;16.51;52.53;101039.41;4923513;29;20511;-70
2022/02/03 17:32:10;;;;;;;10.48;4.93;;;;;;;16.39;52.81;101039.09;4931529;29;20087;-70
2022/02/03 18:09:49;;;;;;;21.40;8.13;;;;;;;15.39;55.21;101051.22;4937032;29;20044;-70
2022/02/03 18:34:36;;;;;;;18.43;9.50;;;;;;;15.01;56.94;101043.78;4937002;29;20138;-70
2022/02/03 18:53:25;;;;;;;15.93;8.80;;;;;;;14.91;57.59;101064.44;4937048;29;20058;-73
2022/02/03 18:56:05;;;;;;;16.40;8.30;;;;;;;14.91;57.75;101070.91;4936955;29;20094;-72
2022/02/03 19:23:36;;;;;;;18.70;9.50;;;;;;;14.86;59.09;101068.13;4930091;29;20163;-71
2022/02/03 20:09:23;;;;;;;24.60;11.83;;;;;;;14.45;60.95;101065.66;4927080;29;20130;-70
2022/02/03 20:11:50;;;;;;;23.70;12.27;;;;;;;14.50;60.69;101075.22;4929890;29;20138;-70
2022/02/03 20:14:19;;;;;;;49.43;26.57;;;;;;;14.53;60.47;101067.06;4931806;29;20139;-70
2022/02/03 20:16:47;;;;;;;24.30;14.93;;;;;;;14.51;60.35;101051.63;4944606;28;20715;-70
2022/02/03 20:19:15;;;;;;;27.07;14.47;;;;;;;14.38;60.34;101036.25;4932854;29;20082;-76
2022/02/03 20:21:43;;;;;;;29.27;14.83;;;;;;;14.55;60.59;101064.78;4935072;29;20130;-77
2022/02/03 20:24:10;;;;;;;26.90;14.37;;;;;;;14.52;60.75;101059.75;4933891;29;20047;-74
2022/02/03 20:26:38;;;;;;;27.57;15.80;;;;;;;14.55;60.68;101063.94;4931620;29;20138;-68
2022/02/03 20:29:05;;;;;;;33.07;16.27;;;;;;;14.52;60.64;101056.09;4951253;29;20051;-70
2022/02/03 20:31:32;;;;;;;32.27;17.07;;;;;;;14.34;60.81;101036.00;4955912;29;20036;-72
2022/02/03 20:34:00;;;;;;;22.63;13.83;;;;;;;14.52;60.79;101061.72;4958090;29;20032;-70
2022/02/03 20:36:26;;;;;;;26.77;15.00;;;;;;;14.35;60.74;101037.66;4952288;29;20035;-73
2022/02/03 20:38:53;;;;;;;34.17;17.57;;;;;;;14.52;60.91;101072.97;4950740;29;20055;-74
2022/02/03 20:41:22;;;;;;;36.40;17.33;;;;;;;14.43;61.42;101075.56;4946759;29;20060;-72
2022/02/03 20:43:50;;;;;;;30.23;16.80;;;;;;;14.32;62.15;101066.34;4941348;29;20059;-69
2022/02/03 20:46:17;;;;;;;37.00;17.17;;;;;;;14.11;62.91;101045.16;4939349;29;20052;-69
2022/02/03 20:48:47;;;;;;;37.17;18.23;;;;;;;14.07;63.37;101058.94;4934735;29;20134;-69
2022/02/03 20:51:15;;;;;;;32.40;19.25;;;;;;;14.34;62.21;101077.31;4937402;28;20147;-73
2022/02/03 20:53:44;;;;;;;38.37;18.80;;;;;;;14.45;61.92;101081.69;4927332;29;20138;-77
2022/02/03 20:56:15;;;;;;;38.97;21.48;;;;;;;14.50;61.66;101072.41;4930556;29;20214;-79
2022/02/03 20:58:47;;;;;;;30.93;16.67;;;;;;;14.51;61.45;101074.09;4931888;29;20056;-79
2022/02/03 21:01:22;;;;;;;31.17;16.90;;;;;;;14.41;61.96;101072.19;4928749;29;20091;-82
2022/02/03 21:03:50;;;;;;;34.40;17.33;;;;;;;14.44;61.84;101071.59;4932388;29;20127;-76
2022/02/03 21:06:18;;;;;;;36.33;18.20;;;;;;;14.40;61.86;101062.91;4932588;29;20128;-76
2022/02/03 21:08:48;;;;;;;34.53;18.10;;;;;;;14.37;61.74;101045.81;4929302;29;20143;-79
2022/02/03 21:11:18;;;;;;;35.60;17.00;;;;;;;14.45;61.77;101056.41;4930576;29;20134;-81
2022/02/03 21:13:45;;;;;;;23.52;15.48;;;;;;;14.49;61.96;101065.91;4933722;29;20094;-74
2022/02/03 21:16:14;;;;;;;27.67;16.43;;;;;;;14.28;62.14;101036.34;4928213;29;20153;-75
2022/02/03 21:18:43;;;;;;;29.63;15.03;;;;;;;14.37;62.63;101066.31;4934794;29;20143;-71
2022/02/03 21:21:10;;;;;;;29.33;15.38;;;;;;;14.30;63.23;101073.41;4937346;29;20479;-71
2022/02/03 21:23:38;;;;;;;29.67;15.47;;;;;;;14.21;63.62;101070.38;4938681;29;20546;-73
2022/02/03 21:26:13;;;;;;;30.63;17.30;;;;;;;14.20;64.04;101079.94;4929027;29;20135;-72
2022/02/03 21:28:46;;;;;;;30.70;17.03;;;;;;;13.75;64.29;101009.75;4932950;29;20130;-76
2022/02/03 21:31:13;;;;;;;37.47;19.50;;;;;;;13.90;64.44;101050.94;4934368;29;20142;-72
2022/02/03 21:33:53;;;;;;;36.27;20.03;;;;;;;13.97;64.92;101073.91;4931916;29;20193;-73
2022/02/03 21:36:22;;;;;;;37.58;21.02;;;;;;;13.99;64.77;101080.06;4928814;29;20135;-71
2022/02/03 21:38:50;;;;;;;44.42;22.48;;;;;;;13.99;64.91;101082.88;4929984;29;20048;-73
2022/02/03 21:41:17;;;;;;;39.73;20.63;;;;;;;13.95;65.23;101084.59;4957188;29;20051;-71
2022/02/03 21:43:46;;;;;;;46.80;21.57;;;;;;;13.78;65.28;101061.69;4954208;29;20054;-73
2022/02/03 21:46:13;;;;;;;40.80;19.90;;;;;;;13.88;65.67;101081.28;4931586;29;20075;-73
2022/02/03 21:48:45;;;;;;;32.57;19.17;;;;;;;13.86;65.89;101079.88;4934800;29;20138;-73
2022/02/03 21:51:12;;;;;;;45.20;22.17;;;;;;;13.88;65.80;101072.84;4936140;29;20142;-73
2022/02/03 21:53:39;;;;;;;39.93;22.67;;;;;;;13.84;66.14;101077.34;4936464;29;21637;-74
2022/02/03 21:56:06;;;;;;;35.77;18.70;;;;;;;13.80;66.38;101075.41;4934875;29;20147;-73
2022/02/03 21:58:33;;;;;;;41.90;20.43;;;;;;;13.77;66.37;101071.22;4966928;28;20090;-73
2022/02/03 22:01:00;;;;;;;40.03;22.07;;;;;;;13.77;66.34;101065.59;4927941;29;20064;-73
2022/02/03 22:03:29;;;;;;;39.30;22.77;;;;;;;13.52;65.45;101002.88;4933120;29;20126;-71
2022/02/03 22:05:57;;;;;;;33.10;21.27;;;;;;;13.74;65.55;101044.59;4936947;29;20062;-74
2022/02/03 22:08:24;;;;;;;39.30;19.97;;;;;;;13.85;65.79;101070.63;4934841;29;20518;-74
2022/02/03 22:10:51;;;;;;;37.30;23.13;;;;;;;13.93;65.76;101080.41;4933856;29;20130;-73
2022/02/03 22:13:19;;;;;;;47.33;23.07;;;;;;;13.91;65.78;101071.41;4958765;28;20063;-74
2022/02/03 22:15:46;;;;;;;38.17;20.67;;;;;;;13.97;65.49;101073.06;4925919;29;20431;-74
2022/02/03 22:18:15;;;;;;;43.60;21.47;;;;;;;13.84;65.97;101071.72;4933700;29;20396;-73
2022/02/03 22:21:02;;;;;;;40.20;20.88;;;;;;;13.72;65.63;101034.78;4966313;28;20122;-74
2022/02/03 22:23:55;;;;;;;34.53;21.43;;;;;;;13.96;65.81;101080.66;4936883;29;20130;-74
2022/02/03 22:43:01;;;;;;;34.17;17.80;;;;;;;13.71;66.76;101083.63;4927944;29;20075;-74
2022/02/03 22:45:46;;;;;;;35.70;19.73;;;;;;;13.69;66.63;101083.91;4930184;29;20083;-71
2022/02/03 22:48:34;;;;;;;36.03;20.50;;;;;;;13.69;66.75;101088.69;4931939;29;20131;-71
2022/02/03 22:51:03;;;;;;;41.73;20.23;;;;;;;13.72;66.84;101090.91;4932594;29;20131;-71
2022/02/03 22:53:33;;;;;;;34.50;17.20;;;;;;;13.65;66.87;101084.78;4932852;29;20154;-71
2022/02/03 22:56:06;;;;;;;34.58;20.15;;;;;;;13.47;66.97;101070.25;4932999;29;20787;-74
2022/02/03 23:01:09;;;;;;;32.10;17.03;;;;;;;13.67;66.96;101093.72;4934249;29;20067;-73
2022/02/03 23:03:36;;;;;;;40.05;20.50;;;;;;;13.69;66.93;101097.09;4932385;29;20055;-75